createdAt,value
2022-08-10T00:00:21.030Z,22.37
2022-08-10T00:01:23.971Z,22.37
2022-08-10T00:02:25.619Z,22.37
2022-08-10T00:03:28.501Z,22.36
2022-08-10T00:04:30.146Z,22.35
2022-08-10T00:05:43.492Z,22.33
2022-08-10T00:06:55.273Z,22.31
2022-08-10T00:07:58.113Z,22.32
2022-08-10T00:09:00.757Z,22.31
2022-08-10T00:10:03.876Z,22.30
2022-08-10T00:11:05.702Z,22.29
2022-08-10T00:12:19.429Z,22.29
2022-08-10T00:13:21.719Z,22.28
2022-08-10T00:14:25.604Z,22.27
2022-08-10T00:15:52.353Z,22.26
2022-08-10T00:16:50.319Z,22.26
2022-08-10T00:17:52.439Z,22.24
2022-08-10T00:18:55.018Z,22.23
2022-08-10T00:20:04.205Z,22.23
2022-08-10T00:21:12.098Z,22.21
2022-08-10T00:22:16.831Z,22.21
2022-08-10T00:23:19.879Z,22.20
2022-08-10T00:24:22.804Z,22.20
2022-08-10T00:25:24.707Z,22.18
2022-08-10T00:26:27.254Z,22.18
2022-08-10T00:28:01.096Z,22.17
2022-08-10T00:29:06.759Z,22.13
2022-08-10T00:30:13.680Z,22.13
2022-08-10T00:31:16.317Z,22.11
2022-08-10T00:32:17.959Z,22.11
2022-08-10T00:33:22.079Z,22.10
2022-08-10T00:34:23.759Z,22.11
2022-08-10T00:35:26.636Z,22.10
2022-08-10T00:36:28.222Z,22.08
2022-08-10T00:37:34.481Z,22.08
2022-08-10T00:38:39.380Z,22.06
2022-08-10T00:39:42.284Z,22.05
2022-08-10T00:40:46.154Z,22.04
2022-08-10T00:42:01.792Z,22.04
2022-08-10T00:43:10.533Z,22.01
2022-08-10T00:44:12.217Z,22.00
2022-08-10T00:45:16.179Z,21.99
2022-08-10T00:46:17.785Z,21.98
2022-08-10T00:47:35.659Z,21.97
2022-08-10T00:48:39.193Z,21.95
2022-08-10T00:49:42.271Z,21.95
2022-08-10T00:50:44.051Z,21.94
2022-08-10T00:51:48.899Z,21.94
2022-08-10T00:52:53.092Z,21.94
2022-08-10T00:53:55.923Z,21.92
2022-08-10T00:54:58.434Z,21.91
2022-08-10T00:57:15.098Z,21.91
2022-08-10T00:57:25.473Z,21.90
2022-08-10T00:58:27.759Z,21.90
2022-08-10T00:59:31.950Z,21.89
2022-08-10T01:00:35.977Z,21.89
2022-08-10T01:02:09.867Z,21.88
2022-08-10T01:03:00.533Z,21.86
2022-08-10T01:04:58.062Z,21.85
2022-08-10T01:05:27.279Z,21.82
2022-08-10T01:06:32.955Z,21.81
2022-08-10T01:08:05.450Z,21.80
2022-08-10T01:09:16.030Z,21.78
2022-08-10T01:10:29.453Z,21.75
2022-08-10T01:11:42.326Z,21.74
2022-08-10T01:13:07.640Z,21.72
2022-08-10T01:14:19.265Z,21.70
2022-08-10T01:15:29.458Z,21.68
2022-08-10T01:16:38.012Z,21.66
2022-08-10T01:17:50.474Z,21.64
2022-08-10T01:19:00.910Z,21.63
2022-08-10T01:20:09.361Z,21.61
2022-08-10T01:21:36.232Z,21.59
2022-08-10T01:23:20.203Z,21.58
2022-08-10T01:24:40.220Z,21.56
2022-08-10T01:26:11.141Z,21.54
2022-08-10T01:27:27.268Z,21.51
2022-08-10T01:28:37.961Z,21.48
2022-08-10T01:29:54.267Z,21.45
2022-08-10T01:31:01.821Z,21.44
2022-08-10T01:32:07.144Z,21.43
2022-08-10T01:33:57.873Z,21.42
2022-08-10T01:34:50.668Z,21.39
2022-08-10T01:35:57.007Z,21.37
2022-08-10T01:37:05.153Z,21.37
2022-08-10T01:38:11.284Z,21.35
2022-08-10T01:39:20.156Z,21.34
2022-08-10T01:40:26.005Z,21.33
2022-08-10T01:41:45.692Z,21.32
2022-08-10T01:42:51.972Z,21.32
2022-08-10T01:44:03.663Z,21.31
2022-08-10T01:45:10.389Z,21.30
2022-08-10T01:46:15.438Z,21.30
2022-08-10T01:47:37.356Z,21.28
2022-08-10T01:48:44.970Z,21.28
2022-08-10T01:49:48.771Z,21.27
2022-08-10T01:50:59.600Z,21.27
2022-08-10T01:52:03.152Z,21.27
2022-08-10T01:53:08.518Z,21.26
2022-08-10T01:54:13.300Z,21.25
2022-08-10T01:55:17.731Z,21.24
2022-08-10T01:56:23.895Z,21.23
2022-08-10T01:57:28.809Z,21.22
2022-08-10T01:58:32.919Z,21.22
2022-08-10T01:59:38.948Z,21.22
2022-08-10T02:00:45.563Z,21.22
2022-08-10T02:01:51.117Z,21.22
2022-08-10T02:02:54.303Z,21.21
2022-08-10T02:04:05.624Z,21.21
2022-08-10T02:05:09.039Z,21.21
2022-08-10T02:06:14.839Z,21.21
2022-08-10T02:07:19.965Z,21.21
2022-08-10T02:08:24.840Z,21.21
2022-08-10T02:09:29.245Z,21.20
2022-08-10T02:10:33.246Z,21.19
2022-08-10T02:12:06.036Z,21.18
2022-08-10T02:12:59.848Z,21.17
2022-08-10T02:14:03.625Z,21.15
2022-08-10T02:15:09.477Z,21.15
2022-08-10T02:16:14.420Z,21.12
2022-08-10T02:17:57.106Z,21.11
2022-08-10T02:18:45.000Z,21.11
2022-08-10T02:19:47.877Z,21.11
2022-08-10T02:20:52.857Z,21.10
2022-08-10T02:22:36.530Z,21.10
2022-08-10T02:23:23.488Z,21.08
2022-08-10T02:24:27.646Z,21.08
2022-08-10T02:25:41.847Z,21.06
2022-08-10T02:26:47.860Z,21.05
2022-08-10T02:27:50.940Z,21.05
2022-08-10T02:28:55.553Z,21.04
2022-08-10T02:29:58.916Z,21.04
2022-08-10T02:31:06.183Z,21.04
2022-08-10T02:32:11.126Z,21.04
2022-08-10T02:33:17.158Z,21.03
2022-08-10T02:34:20.260Z,21.02
2022-08-10T02:35:26.348Z,21.01
2022-08-10T02:36:36.352Z,20.99
2022-08-10T02:37:39.917Z,20.99
2022-08-10T02:38:58.654Z,20.99
2022-08-10T02:40:02.460Z,20.98
2022-08-10T02:45:13.000Z,20.98
2022-08-10T02:45:17.699Z,20.96
2022-08-10T02:45:19.998Z,20.97
2022-08-10T02:45:42.238Z,20.95
2022-08-10T02:46:50.325Z,20.92
2022-08-10T02:48:00.161Z,20.88
2022-08-10T02:49:04.482Z,20.89
2022-08-10T02:50:11.095Z,20.87
2022-08-10T02:52:07.635Z,20.85
2022-08-10T02:52:49.972Z,20.84
2022-08-10T02:54:00.188Z,20.82
2022-08-10T02:55:18.018Z,20.80
2022-08-10T02:56:25.512Z,20.81
2022-08-10T02:57:34.364Z,20.79
2022-08-10T02:58:41.446Z,20.77
2022-08-10T02:59:48.634Z,20.77
2022-08-10T03:00:55.490Z,20.76
2022-08-10T03:02:03.415Z,20.76
2022-08-10T03:03:06.724Z,20.74
2022-08-10T03:04:20.319Z,20.74
2022-08-10T03:05:42.943Z,20.73
2022-08-10T03:06:50.721Z,20.72
2022-08-10T03:07:58.379Z,20.71
2022-08-10T03:09:02.786Z,20.68
2022-08-10T03:10:13.253Z,20.68
2022-08-10T03:12:34.892Z,20.67
2022-08-10T03:12:50.409Z,20.66
2022-08-10T03:13:59.891Z,20.64
2022-08-10T03:15:05.162Z,20.63
2022-08-10T03:16:09.770Z,20.62
2022-08-10T03:17:13.453Z,20.62
2022-08-10T03:18:18.542Z,20.61
2022-08-10T03:20:35.044Z,20.61
2022-08-10T03:20:45.973Z,20.61
2022-08-10T03:21:49.939Z,20.59
2022-08-10T03:22:53.909Z,20.59
2022-08-10T03:23:58.227Z,20.59
2022-08-10T03:25:02.185Z,20.59
2022-08-10T03:26:04.243Z,20.57
2022-08-10T03:27:07.521Z,20.57
2022-08-10T03:28:10.369Z,20.57
2022-08-10T03:29:22.758Z,20.55
2022-08-10T03:30:32.689Z,20.55
2022-08-10T03:31:40.131Z,20.55
2022-08-10T03:32:43.923Z,20.53
2022-08-10T03:33:49.076Z,20.53
2022-08-10T03:34:51.917Z,20.52
2022-08-10T03:36:42.879Z,20.51
2022-08-10T03:37:17.612Z,20.51
2022-08-10T03:38:20.610Z,20.50
2022-08-10T03:39:22.284Z,20.47
2022-08-10T03:40:44.652Z,20.47
2022-08-10T03:41:53.625Z,20.47
2022-08-10T03:42:58.241Z,20.45
2022-08-10T03:44:02.936Z,20.45
2022-08-10T03:45:06.929Z,20.43
2022-08-10T03:46:13.542Z,20.42
2022-08-10T03:47:17.270Z,20.41
2022-08-10T03:48:20.832Z,20.39
2022-08-10T03:49:27.826Z,20.38
2022-08-10T03:50:51.212Z,20.36
2022-08-10T03:51:53.277Z,20.35
2022-08-10T03:52:55.343Z,20.34
2022-08-10T03:54:03.818Z,20.33
2022-08-10T03:55:08.819Z,20.32
2022-08-10T03:56:29.789Z,20.32
2022-08-10T03:57:34.264Z,20.30
2022-08-10T03:58:36.136Z,20.28
2022-08-10T03:59:39.266Z,20.27
2022-08-10T04:00:41.696Z,20.26
2022-08-10T04:02:41.943Z,20.25
2022-08-10T04:03:07.733Z,20.25
2022-08-10T04:04:11.697Z,20.24
2022-08-10T04:05:17.270Z,20.23
2022-08-10T04:06:20.405Z,20.22
2022-08-10T04:07:22.062Z,20.23
2022-08-10T04:08:24.922Z,20.22
2022-08-10T04:09:43.120Z,20.21
2022-08-10T04:10:50.652Z,20.19
2022-08-10T04:11:53.219Z,20.19
2022-08-10T04:12:55.004Z,20.17
2022-08-10T04:14:01.649Z,20.15
2022-08-10T04:15:04.092Z,20.14
2022-08-10T04:16:07.756Z,20.13
2022-08-10T04:17:13.836Z,20.10
2022-08-10T04:18:16.792Z,20.11
2022-08-10T04:19:19.768Z,20.10
2022-08-10T04:20:34.273Z,20.08
2022-08-10T04:21:40.482Z,20.07
2022-08-10T04:22:45.582Z,20.06
2022-08-10T04:23:53.215Z,20.05
2022-08-10T04:25:00.538Z,20.05
2022-08-10T04:26:03.393Z,20.03
2022-08-10T04:27:06.429Z,20.02
2022-08-10T04:28:09.094Z,20.01
2022-08-10T04:29:12.024Z,20.02
2022-08-10T04:30:16.037Z,20.01
2022-08-10T04:31:20.470Z,20.00
2022-08-10T04:32:24.547Z,20.00
2022-08-10T04:33:29.920Z,19.99
2022-08-10T04:34:33.197Z,20.00
2022-08-10T04:35:39.925Z,20.00
2022-08-10T04:36:43.300Z,20.00
2022-08-10T04:37:47.837Z,20.00
2022-08-10T04:38:51.945Z,19.99
2022-08-10T04:39:56.420Z,20.00
2022-08-10T04:40:58.544Z,19.99
2022-08-10T04:42:01.385Z,20.00
2022-08-10T04:43:11.680Z,20.01
2022-08-10T04:44:15.348Z,20.01
2022-08-10T04:45:17.416Z,20.02
2022-08-10T04:46:42.970Z,20.02
2022-08-10T04:47:57.479Z,20.03
2022-08-10T04:49:04.812Z,20.03
2022-08-10T04:50:07.653Z,20.06
2022-08-10T04:51:18.091Z,20.05
2022-08-10T04:52:20.250Z,20.06
2022-08-10T04:53:23.326Z,20.05
2022-08-10T04:54:25.778Z,20.06
2022-08-10T04:55:32.550Z,20.05
2022-08-10T04:56:36.135Z,20.07
2022-08-10T04:57:38.732Z,20.07
2022-08-10T04:58:40.445Z,20.09
2022-08-10T04:59:43.082Z,20.09
2022-08-10T05:00:45.021Z,20.10
2022-08-10T05:02:21.421Z,20.12
2022-08-10T05:03:10.182Z,20.11
2022-08-10T05:04:34.934Z,20.12
2022-08-10T05:05:34.659Z,20.15
2022-08-10T05:06:37.674Z,20.15
2022-08-10T05:07:44.739Z,20.13
2022-08-10T05:08:56.037Z,20.15
2022-08-10T05:10:04.752Z,20.15
2022-08-10T05:11:08.549Z,20.15
2022-08-10T05:12:10.509Z,20.16
2022-08-10T05:13:13.104Z,20.17
2022-08-10T05:14:14.811Z,20.18
2022-08-10T05:15:19.149Z,20.19
2022-08-10T05:16:32.088Z,20.20
2022-08-10T05:17:35.817Z,20.22
2022-08-10T05:18:37.630Z,20.23
2022-08-10T05:20:04.163Z,20.23
2022-08-10T05:21:02.979Z,20.24
2022-08-10T05:22:06.123Z,20.24
2022-08-10T05:23:08.696Z,20.25
2022-08-10T05:24:10.322Z,20.26
2022-08-10T05:25:15.298Z,20.27
2022-08-10T05:26:16.954Z,20.28
2022-08-10T05:27:19.566Z,20.29
2022-08-10T05:28:21.319Z,20.31
2022-08-10T05:29:26.431Z,20.32
2022-08-10T05:30:29.222Z,20.32
2022-08-10T05:31:31.060Z,20.34
2022-08-10T05:32:56.535Z,20.35
2022-08-10T05:33:57.239Z,20.37
2022-08-10T05:34:58.949Z,20.39
2022-08-10T05:36:02.318Z,20.41
2022-08-10T05:37:06.435Z,20.44
2022-08-10T05:38:29.614Z,20.47
2022-08-10T05:39:33.419Z,20.48
2022-08-10T05:40:37.610Z,20.50
2022-08-10T05:41:44.769Z,20.55
2022-08-10T05:42:48.714Z,20.58
2022-08-10T05:43:52.030Z,20.61
2022-08-10T05:44:53.804Z,20.63
2022-08-10T05:46:18.390Z,20.66
2022-08-10T05:47:20.143Z,20.70
2022-08-10T05:48:53.833Z,20.76
2022-08-10T05:49:44.835Z,20.86
2022-08-10T05:50:46.658Z,20.96
2022-08-10T05:51:49.416Z,21.06
2022-08-10T05:52:52.818Z,21.16
2022-08-10T05:54:01.397Z,21.27
2022-08-10T05:55:09.615Z,21.39
2022-08-10T05:56:13.439Z,21.49
2022-08-10T05:57:17.582Z,21.59
2022-08-10T05:58:19.306Z,21.69
2022-08-10T06:00:11.326Z,21.78
2022-08-10T06:00:50.051Z,21.87
2022-08-10T06:02:31.259Z,21.97
2022-08-10T06:03:24.070Z,22.03
2022-08-10T06:04:30.362Z,22.09
2022-08-10T06:05:37.491Z,22.14
2022-08-10T06:06:41.624Z,22.19
2022-08-10T06:07:49.553Z,22.24
2022-08-10T06:08:53.941Z,22.31
2022-08-10T06:09:59.951Z,22.37
2022-08-10T06:12:24.385Z,22.45
2022-08-10T06:12:36.417Z,22.49
2022-08-10T06:14:16.513Z,22.53
2022-08-10T06:15:26.477Z,22.59
2022-08-10T06:16:43.957Z,22.66
2022-08-10T06:17:46.807Z,22.72
2022-08-10T06:19:04.446Z,22.78
2022-08-10T06:20:07.254Z,22.85
2022-08-10T06:21:10.488Z,22.92
2022-08-10T06:22:12.313Z,22.99
2022-08-10T06:23:15.452Z,23.06
2022-08-10T06:24:25.602Z,23.12
2022-08-10T06:26:56.704Z,23.20
2022-08-10T06:28:00.920Z,23.24
2022-08-10T06:29:08.462Z,23.29
2022-08-10T06:30:20.962Z,23.33
2022-08-10T06:31:26.364Z,23.40
2022-08-10T06:32:30.756Z,23.43
2022-08-10T06:33:35.437Z,23.47
2022-08-10T06:34:42.841Z,23.49
2022-08-10T06:35:45.261Z,23.54
2022-08-10T06:36:48.904Z,23.60
2022-08-10T06:37:52.005Z,23.66
2022-08-10T06:39:11.196Z,23.72
2022-08-10T06:40:21.420Z,23.75
2022-08-10T06:41:59.790Z,23.80
2022-08-10T06:42:51.210Z,23.85
2022-08-10T06:43:58.438Z,23.91
2022-08-10T06:45:05.901Z,23.97
2022-08-10T06:46:12.706Z,24.02
2022-08-10T06:47:22.976Z,24.04
2022-08-10T06:48:27.249Z,24.08
2022-08-10T06:49:32.750Z,24.08
2022-08-10T06:50:44.919Z,24.11
2022-08-10T06:51:57.166Z,24.11
2022-08-10T06:53:03.143Z,24.12
2022-08-10T06:54:06.939Z,24.15
2022-08-10T06:55:16.813Z,24.15
2022-08-10T06:56:37.514Z,24.14
2022-08-10T06:57:42.276Z,24.17
2022-08-10T06:58:54.637Z,24.19
2022-08-10T07:00:00.186Z,24.21
2022-08-10T07:01:14.178Z,24.21
2022-08-10T07:02:22.586Z,24.22
2022-08-10T07:03:32.346Z,24.22
2022-08-10T07:04:42.587Z,24.22
2022-08-10T07:05:51.012Z,24.19
2022-08-10T07:06:55.579Z,24.15
2022-08-10T07:08:01.780Z,24.15
2022-08-10T07:09:04.548Z,24.16
2022-08-10T07:10:10.282Z,24.15
2022-08-10T07:11:13.824Z,24.16
2022-08-10T07:12:20.258Z,24.17
2022-08-10T07:14:15.317Z,24.15
2022-08-10T07:14:46.958Z,24.13
2022-08-10T07:15:58.101Z,24.13
2022-08-10T07:17:04.463Z,24.12
2022-08-10T07:18:09.005Z,24.14
2022-08-10T07:19:11.502Z,24.14
2022-08-10T07:20:17.402Z,24.16
2022-08-10T07:21:19.582Z,24.15
2022-08-10T07:23:05.841Z,24.14
2022-08-10T07:23:58.582Z,24.10
2022-08-10T07:25:02.679Z,24.11
2022-08-10T07:26:11.484Z,24.12
2022-08-10T07:27:13.623Z,24.12
2022-08-10T07:28:19.039Z,24.12
2022-08-10T07:29:54.202Z,24.11
2022-08-10T07:30:53.005Z,24.08
2022-08-10T07:31:57.850Z,24.11
2022-08-10T07:33:02.453Z,24.11
2022-08-10T07:34:07.065Z,24.13
2022-08-10T07:35:14.290Z,24.14
2022-08-10T07:36:19.955Z,24.17
2022-08-10T07:37:24.852Z,24.19
2022-08-10T07:38:30.068Z,24.23
2022-08-10T07:39:59.615Z,24.24
2022-08-10T07:41:01.136Z,24.25
2022-08-10T07:42:04.440Z,24.27
2022-08-10T07:43:08.825Z,24.29
2022-08-10T07:44:12.699Z,24.32
2022-08-10T07:45:15.659Z,24.33
2022-08-10T07:46:22.248Z,24.34
2022-08-10T07:47:52.736Z,24.34
2022-08-10T07:49:00.619Z,24.35
2022-08-10T07:50:07.515Z,24.37
2022-08-10T07:51:11.281Z,24.40
2022-08-10T07:52:13.268Z,24.40
2022-08-10T07:53:23.191Z,24.43
2022-08-10T07:54:27.362Z,24.45
2022-08-10T07:56:05.411Z,24.46
2022-08-10T07:57:00.590Z,24.43
2022-08-10T07:58:03.908Z,24.45
2022-08-10T07:59:10.281Z,24.47
2022-08-10T08:00:15.220Z,24.50
2022-08-10T08:01:19.329Z,24.52
2022-08-10T08:02:28.312Z,24.55
2022-08-10T08:03:33.437Z,24.56
2022-08-10T08:04:37.557Z,24.58
2022-08-10T08:05:58.239Z,24.60
2022-08-10T08:07:04.439Z,24.61
2022-08-10T08:08:07.877Z,24.66
2022-08-10T08:09:11.699Z,24.67
2022-08-10T08:10:16.142Z,24.69
2022-08-10T08:11:25.609Z,24.70
2022-08-10T08:12:32.499Z,24.71
2022-08-10T08:13:39.454Z,24.72
2022-08-10T08:14:44.139Z,24.75
2022-08-10T08:16:18.179Z,24.76
2022-08-10T08:17:11.835Z,24.75
2022-08-10T08:18:19.423Z,24.78
2022-08-10T08:19:35.922Z,24.79
2022-08-10T08:20:44.314Z,24.78
2022-08-10T08:24:06.693Z,24.81
2022-08-10T08:24:10.785Z,24.84
2022-08-10T08:24:38.301Z,24.86
2022-08-10T08:25:42.766Z,24.90
2022-08-10T08:26:49.310Z,24.94
2022-08-10T08:27:57.706Z,24.97
2022-08-10T08:29:00.870Z,25.02
2022-08-10T08:30:09.631Z,25.04
2022-08-10T08:31:14.290Z,25.06
2022-08-10T08:32:22.184Z,25.08
2022-08-10T08:33:41.517Z,25.11
2022-08-10T08:34:47.183Z,25.12
2022-08-10T08:35:50.893Z,25.15
2022-08-10T08:36:57.409Z,25.17
2022-08-10T08:38:32.172Z,25.19
2022-08-10T08:39:26.598Z,25.19
2022-08-10T08:40:33.446Z,25.21
2022-08-10T08:42:18.672Z,25.20
2022-08-10T08:43:34.738Z,25.20
2022-08-10T08:44:50.203Z,25.22
2022-08-10T08:46:19.449Z,25.20
2022-08-10T08:48:03.830Z,25.22
2022-08-10T08:50:04.987Z,25.19
2022-08-10T08:51:08.638Z,25.20
2022-08-10T08:52:32.221Z,25.24
2022-08-10T08:54:02.899Z,25.27
2022-08-10T08:56:04.900Z,25.29
2022-08-10T08:56:50.273Z,25.31
2022-08-10T08:58:03.281Z,25.37
2022-08-10T08:59:26.770Z,25.41
2022-08-10T09:00:36.579Z,25.48
2022-08-10T09:02:07.595Z,25.48
2022-08-10T09:03:33.144Z,25.50
2022-08-10T09:04:53.740Z,25.50
2022-08-10T09:06:06.955Z,25.53
2022-08-10T09:07:59.092Z,25.55
2022-08-10T09:09:03.855Z,25.55
2022-08-10T09:10:16.805Z,25.56
2022-08-10T09:11:38.091Z,25.58
2022-08-10T09:12:49.238Z,25.60
2022-08-10T09:13:58.513Z,25.62
2022-08-10T09:15:05.729Z,25.63
2022-08-10T09:16:23.787Z,25.64
2022-08-10T09:17:32.629Z,25.65
2022-08-10T09:18:43.299Z,25.68
2022-08-10T09:19:49.660Z,25.72
2022-08-10T09:21:00.051Z,25.74
2022-08-10T09:22:17.585Z,25.78
2022-08-10T09:24:01.426Z,25.80
2022-08-10T09:24:57.412Z,25.80
2022-08-10T09:26:04.839Z,25.82
2022-08-10T09:27:13.292Z,25.84
2022-08-10T09:28:26.782Z,25.87
2022-08-10T09:29:33.085Z,25.89
2022-08-10T09:30:48.295Z,25.93
2022-08-10T09:36:14.151Z,25.93
2022-08-10T09:36:20.492Z,25.95
2022-08-10T09:36:21.775Z,25.94
2022-08-10T09:36:45.335Z,25.99
2022-08-10T09:38:02.259Z,26.04
2022-08-10T09:40:05.812Z,26.07
2022-08-10T09:41:00.805Z,26.08
2022-08-10T09:42:14.953Z,26.12
2022-08-10T09:43:26.677Z,26.19
2022-08-10T09:44:58.489Z,26.20
2022-08-10T09:46:12.674Z,26.20
2022-08-10T09:47:58.503Z,26.23
2022-08-10T09:49:04.552Z,26.24
2022-08-10T09:50:16.269Z,26.28
2022-08-10T09:51:47.560Z,26.31
2022-08-10T09:53:03.625Z,26.34
2022-08-10T09:54:24.396Z,26.38
2022-08-10T09:56:17.475Z,26.44
2022-08-10T09:57:44.856Z,26.46
2022-08-10T09:58:41.250Z,26.50
2022-08-10T10:00:01.630Z,26.53
2022-08-10T10:01:56.344Z,26.50
2022-08-10T10:02:47.032Z,26.51
2022-08-10T10:04:01.440Z,26.53
2022-08-10T10:05:10.305Z,26.57
2022-08-10T10:06:18.490Z,26.63
2022-08-10T10:07:25.977Z,26.68
2022-08-10T10:08:33.354Z,26.72
2022-08-10T10:09:42.843Z,26.75
2022-08-10T10:10:58.390Z,26.78
2022-08-10T10:12:12.853Z,26.80
2022-08-10T10:14:01.493Z,26.83
2022-08-10T10:15:25.156Z,26.82
2022-08-10T10:16:47.628Z,26.83
2022-08-10T10:18:03.451Z,26.87
2022-08-10T10:19:24.502Z,26.90
2022-08-10T10:20:35.666Z,26.94
2022-08-10T10:21:54.534Z,26.97
2022-08-10T10:23:07.844Z,26.95
2022-08-10T10:24:22.815Z,26.97
2022-08-10T10:25:50.089Z,26.98
2022-08-10T10:26:58.542Z,26.96
2022-08-10T10:28:57.606Z,26.95
2022-08-10T10:30:00.541Z,26.95
2022-08-10T10:31:16.806Z,27.00
2022-08-10T10:32:26.872Z,27.03
2022-08-10T10:33:52.537Z,27.04
2022-08-10T10:35:02.490Z,27.08
2022-08-10T10:36:07.339Z,27.12
2022-08-10T10:37:11.321Z,27.16
2022-08-10T10:38:17.052Z,27.18
2022-08-10T10:39:24.140Z,27.20
2022-08-10T10:40:33.655Z,27.21
2022-08-10T10:42:03.957Z,27.23
2022-08-10T10:43:11.131Z,27.21
2022-08-10T10:44:22.937Z,27.22
2022-08-10T10:45:36.852Z,27.24
2022-08-10T10:46:56.913Z,27.25
2022-08-10T10:48:08.852Z,27.28
2022-08-10T10:49:23.726Z,27.32
2022-08-10T10:50:34.816Z,27.36
2022-08-10T10:51:44.706Z,27.40
2022-08-10T10:52:57.345Z,27.42
2022-08-10T10:54:08.821Z,27.46
2022-08-10T10:55:19.939Z,27.47
2022-08-10T10:56:31.019Z,27.49
2022-08-10T10:57:58.601Z,27.50
2022-08-10T10:59:15.376Z,27.50
2022-08-10T11:00:43.361Z,27.52
2022-08-10T11:01:53.920Z,27.56
2022-08-10T11:03:21.494Z,27.58
2022-08-10T11:04:28.158Z,27.62
2022-08-10T11:05:38.805Z,27.67
2022-08-10T11:06:52.626Z,27.70
2022-08-10T11:08:01.293Z,27.72
2022-08-10T11:09:09.581Z,27.73
2022-08-10T11:10:32.543Z,27.76
2022-08-10T11:12:00.841Z,27.76
2022-08-10T11:14:24.453Z,27.74
2022-08-10T11:14:45.722Z,27.75
2022-08-10T11:15:57.616Z,27.78
2022-08-10T11:17:04.584Z,27.81
2022-08-10T11:18:15.212Z,27.84
2022-08-10T11:19:26.441Z,27.85
2022-08-10T11:20:58.878Z,27.83
2022-08-10T11:22:14.513Z,27.88
2022-08-10T11:23:27.130Z,27.91
2022-08-10T11:24:48.626Z,27.91
2022-08-10T11:25:58.801Z,27.89
2022-08-10T11:27:21.662Z,27.90
2022-08-10T11:28:37.156Z,27.89
2022-08-10T11:29:49.742Z,27.91
2022-08-10T11:30:59.491Z,27.92
2022-08-10T11:32:07.842Z,27.95
2022-08-10T11:33:30.788Z,27.96
2022-08-10T11:34:48.316Z,27.97
2022-08-10T11:36:16.048Z,27.96
2022-08-10T11:37:21.965Z,27.97
2022-08-10T11:38:42.830Z,28.00
2022-08-10T11:40:02.083Z,28.00
2022-08-10T11:41:12.823Z,28.03
2022-08-10T11:42:41.900Z,28.04
2022-08-10T11:43:52.768Z,28.08
2022-08-10T11:45:00.810Z,28.08
2022-08-10T11:46:10.186Z,28.10
2022-08-10T11:47:15.350Z,28.12
2022-08-10T11:48:53.952Z,28.15
2022-08-10T11:49:54.527Z,28.15
2022-08-10T11:50:59.820Z,28.17
2022-08-10T11:52:11.403Z,28.18
2022-08-10T11:53:19.660Z,28.19
2022-08-10T11:54:27.139Z,28.20
2022-08-10T11:55:31.365Z,28.21
2022-08-10T11:56:45.556Z,28.23
2022-08-10T11:57:53.258Z,28.25
2022-08-10T11:59:17.228Z,28.28
2022-08-10T12:00:19.988Z,28.30
2022-08-10T12:01:27.651Z,28.34
2022-08-10T12:02:34.034Z,28.35
2022-08-10T12:03:38.219Z,28.40
2022-08-10T12:04:46.418Z,28.44
2022-08-10T12:05:54.056Z,28.48
2022-08-10T12:06:57.921Z,28.47
2022-08-10T12:09:17.413Z,28.52
2022-08-10T12:10:10.582Z,28.55
2022-08-10T12:10:51.608Z,28.59
2022-08-10T12:11:54.089Z,28.62
2022-08-10T12:13:10.593Z,28.61
2022-08-10T12:14:21.859Z,28.64
2022-08-10T12:15:33.841Z,28.62
2022-08-10T12:16:40.139Z,28.64
2022-08-10T12:17:48.955Z,28.66
2022-08-10T12:19:01.987Z,28.66
2022-08-10T12:20:09.396Z,28.67
2022-08-10T12:21:21.590Z,28.69
2022-08-10T12:22:31.590Z,28.70
2022-08-10T12:23:41.317Z,28.72
2022-08-10T12:24:49.419Z,28.76
2022-08-10T12:25:59.324Z,28.78
2022-08-10T12:27:07.887Z,28.79
2022-08-10T12:28:21.171Z,28.79
2022-08-10T12:29:39.473Z,28.80
2022-08-10T12:30:52.849Z,28.78
2022-08-10T12:32:01.152Z,28.79
2022-08-10T12:33:08.484Z,28.80
2022-08-10T12:34:18.959Z,28.80
2022-08-10T12:35:26.788Z,28.83
2022-08-10T12:36:37.663Z,28.84
2022-08-10T12:37:56.478Z,28.83
2022-08-10T12:39:07.599Z,28.81
2022-08-10T12:40:34.686Z,28.81
2022-08-10T12:41:44.936Z,28.79
2022-08-10T12:43:02.570Z,28.81
2022-08-10T12:44:19.714Z,28.81
2022-08-10T12:45:32.947Z,28.81
2022-08-10T12:46:55.231Z,28.83
2022-08-10T12:48:03.835Z,28.81
2022-08-10T12:49:12.822Z,28.83
2022-08-10T12:50:33.437Z,28.85
2022-08-10T12:51:38.792Z,28.85
2022-08-10T12:52:55.272Z,28.88
2022-08-10T12:54:06.161Z,28.91
2022-08-10T12:55:11.038Z,28.94
2022-08-10T12:56:22.539Z,28.96
2022-08-10T12:57:25.915Z,28.99
2022-08-10T12:58:57.188Z,29.01
2022-08-10T12:59:55.874Z,29.00
2022-08-10T13:01:15.692Z,29.04
2022-08-10T13:02:24.128Z,29.05
2022-08-10T13:04:21.323Z,29.09
2022-08-10T13:04:51.528Z,29.11
2022-08-10T13:06:00.363Z,29.12
2022-08-10T13:07:07.648Z,29.15
2022-08-10T13:08:28.677Z,29.19
2022-08-10T13:09:33.855Z,29.23
2022-08-10T13:11:00.035Z,29.24
2022-08-10T13:12:39.446Z,29.28
2022-08-10T13:13:34.446Z,29.28
2022-08-10T13:14:42.948Z,29.30
2022-08-10T13:15:50.386Z,29.31
2022-08-10T13:16:57.157Z,29.32
2022-08-10T13:18:03.607Z,29.35
2022-08-10T13:19:06.482Z,29.36
2022-08-10T13:20:19.216Z,29.35
2022-08-10T13:21:21.458Z,29.35
2022-08-10T13:22:26.328Z,29.36
2022-08-10T13:23:29.896Z,29.36
2022-08-10T13:24:37.647Z,29.36
2022-08-10T13:25:42.716Z,29.34
2022-08-10T13:27:26.158Z,29.35
2022-08-10T13:28:36.273Z,29.31
2022-08-10T13:29:44.909Z,29.30
2022-08-10T13:30:51.892Z,29.31
2022-08-10T13:32:08.948Z,29.33
2022-08-10T13:33:17.724Z,29.32
2022-08-10T13:34:46.367Z,29.30
2022-08-10T13:35:49.327Z,29.33
2022-08-10T13:37:01.859Z,29.34
2022-08-10T13:38:05.019Z,29.34
2022-08-10T13:39:09.292Z,29.35
2022-08-10T13:40:21.419Z,29.35
2022-08-10T13:41:27.401Z,29.36
2022-08-10T13:42:34.975Z,29.37
2022-08-10T13:43:37.649Z,29.40
2022-08-10T13:44:43.167Z,29.43
2022-08-10T13:45:49.986Z,29.45
2022-08-10T13:46:54.866Z,29.46
2022-08-10T13:48:09.440Z,29.48
2022-08-10T13:49:12.761Z,29.48
2022-08-10T13:50:21.782Z,29.50
2022-08-10T13:51:54.384Z,29.49
2022-08-10T13:53:01.632Z,29.48
2022-08-10T13:54:06.698Z,29.53
2022-08-10T13:55:14.176Z,29.55
2022-08-10T13:56:16.808Z,29.57
2022-08-10T13:57:23.094Z,29.61
2022-08-10T13:58:30.716Z,29.62
2022-08-10T14:00:34.161Z,29.64
2022-08-10T14:01:00.758Z,29.63
2022-08-10T14:02:05.770Z,29.63
2022-08-10T14:03:11.109Z,29.63
2022-08-10T14:04:14.684Z,29.64
2022-08-10T14:05:24.809Z,29.64
2022-08-10T14:06:30.086Z,29.65
2022-08-10T14:07:34.119Z,29.65
2022-08-10T14:08:39.020Z,29.65
2022-08-10T14:09:44.349Z,29.66
2022-08-10T14:11:08.665Z,29.66
2022-08-10T14:12:13.584Z,29.63
2022-08-10T14:13:18.521Z,29.65
2022-08-10T14:14:23.072Z,29.66
2022-08-10T14:15:29.966Z,29.66
2022-08-10T14:16:33.150Z,29.66
2022-08-10T14:17:39.236Z,29.65
2022-08-10T14:18:47.399Z,29.64
2022-08-10T14:19:58.498Z,29.62
2022-08-10T14:21:01.013Z,29.62
2022-08-10T14:22:07.593Z,29.63
2022-08-10T14:23:10.972Z,29.64
2022-08-10T14:24:24.823Z,29.63
2022-08-10T14:25:26.781Z,29.63
2022-08-10T14:26:32.113Z,29.64
2022-08-10T14:28:01.538Z,29.64
2022-08-10T14:29:04.331Z,29.61
2022-08-10T14:30:07.515Z,29.62
2022-08-10T14:31:24.748Z,29.63
2022-08-10T14:32:31.227Z,29.63
2022-08-10T14:33:35.601Z,29.65
2022-08-10T14:36:15.279Z,29.67
2022-08-10T14:36:20.368Z,29.66
2022-08-10T14:37:38.031Z,29.64
2022-08-10T14:38:44.702Z,29.64
2022-08-10T14:39:51.563Z,29.65
2022-08-10T14:40:57.075Z,29.66
2022-08-10T14:42:16.745Z,29.66
2022-08-10T14:43:29.450Z,29.68
2022-08-10T14:44:32.144Z,29.70
2022-08-10T14:45:36.669Z,29.74
2022-08-10T14:46:44.288Z,29.75
2022-08-10T14:47:53.023Z,29.77
2022-08-10T14:48:58.545Z,29.76
2022-08-10T14:50:02.254Z,29.77
2022-08-10T14:51:05.785Z,29.77
2022-08-10T14:52:11.851Z,29.79
2022-08-10T14:53:18.314Z,29.81
2022-08-10T14:54:23.418Z,29.82
2022-08-10T14:55:28.424Z,29.83
2022-08-10T14:56:32.359Z,29.86
2022-08-10T14:58:16.982Z,29.85
2022-08-10T14:59:07.590Z,29.83
2022-08-10T15:00:29.376Z,29.85
2022-08-10T15:02:00.451Z,29.83
2022-08-10T15:03:01.245Z,29.82
2022-08-10T15:04:07.753Z,29.83
2022-08-10T15:05:15.716Z,29.83
2022-08-10T15:06:30.911Z,29.84
2022-08-10T15:07:34.228Z,29.84